Time;durP1;ratioP1;P1;durP2;ratioP2;P2;SDS_P1;SDS_P2;PMS_P1;PMS_P2;Temp;Humidity;BMP_temperature;BMP_pressure;BME280_temperature;BME280_humidity;BME280_pressure;Samples;Min_cycle;Max_cycle;Signal;HPM_P1;HPM_P2
2022/03/07 00:02:06;;;;;;;6.57;2.60;;;3.10;99.90;;;;;;5016075;28;20052;-61
2022/03/07 00:04:32;;;;;;;6.30;3.47;;;3.00;99.90;;;;;;5046753;28;20095;-59
2022/03/07 00:06:58;;;;;;;4.22;2.95;;;3.00;99.90;;;;;;5017978;28;20871;-59
2022/03/07 00:09:23;;;;;;;7.28;3.67;;;2.90;99.90;;;;;;5040403;28;20045;-58
2022/03/07 00:11:49;;;;;;;5.38;3.63;;;2.90;99.90;;;;;;5045987;28;20036;-58
2022/03/07 00:14:15;;;;;;;4.93;4.13;;;2.90;99.90;;;;;;5040169;28;20150;-59
2022/03/07 00:16:41;;;;;;;5.85;4.43;;;2.90;99.90;;;;;;5041250;28;20067;-59
2022/03/07 00:19:07;;;;;;;9.35;4.63;;;2.90;99.90;;;;;;5045060;28;20036;-60
2022/03/07 00:21:34;;;;;;;6.57;3.70;;;2.90;99.90;;;;;;5044838;28;20561;-60
2022/03/07 00:24:00;;;;;;;4.20;3.78;;;2.80;99.90;;;;;;5037506;28;20049;-60
2022/03/07 00:26:25;;;;;;;5.78;4.50;;;2.80;99.90;;;;;;5019418;28;20053;-59
2022/03/07 00:28:51;;;;;;;7.80;4.40;;;2.80;99.90;;;;;;5041925;28;20052;-58
2022/03/07 00:31:19;;;;;;;4.47;3.45;;;2.70;99.90;;;;;;5018073;28;20491;-59
2022/03/07 00:33:45;;;;;;;3.55;3.22;;;2.70;99.90;;;;;;5036208;28;20052;-59
2022/03/07 00:36:11;;;;;;;5.53;4.03;;;2.60;99.90;;;;;;5017655;28;20156;-60
2022/03/07 00:38:36;;;;;;;8.00;4.22;;;2.60;99.90;;;;;;5035116;28;20055;-60
2022/03/07 00:41:02;;;;;;;6.45;4.25;;;2.60;99.90;;;;;;5018124;28;20057;-58
2022/03/07 00:43:27;;;;;;;5.80;4.38;;;2.60;99.90;;;;;;5035695;28;20067;-60
2022/03/07 00:45:53;;;;;;;5.68;4.80;;;2.50;99.90;;;;;;5035716;28;20152;-58
2022/03/07 00:48:19;;;;;;;6.32;3.88;;;2.50;99.90;;;;;;5018276;28;20477;-58
2022/03/07 00:50:47;;;;;;;5.32;4.07;;;2.50;99.90;;;;;;5035163;28;20053;-60
2022/03/07 00:53:15;;;;;;;5.40;4.03;;;2.50;99.90;;;;;;5054804;28;20059;-60
2022/03/07 00:55:40;;;;;;;5.60;4.20;;;2.40;99.90;;;;;;5055890;28;20099;-60
2022/03/07 00:58:06;;;;;;;6.03;4.43;;;2.40;99.90;;;;;;5037324;28;20159;-60
2022/03/07 01:00:33;;;;;;;5.57;4.15;;;2.40;99.90;;;;;;5037318;28;20218;-60
2022/03/07 01:02:59;;;;;;;6.38;4.63;;;2.40;99.90;;;;;;5032474;28;20119;-60
2022/03/07 01:05:25;;;;;;;6.97;4.32;;;2.20;99.90;;;;;;5033622;28;20045;-60
2022/03/07 01:07:50;;;;;;;3.78;3.35;;;2.20;99.90;;;;;;5035251;28;20128;-60
2022/03/07 01:10:16;;;;;;;6.43;3.85;;;2.00;99.90;;;;;;5017615;28;20064;-61
2022/03/07 01:12:42;;;;;;;7.28;4.00;;;2.10;99.90;;;;;;5035696;28;20461;-60
2022/03/07 01:15:08;;;;;;;4.10;3.33;;;2.20;99.90;;;;;;5017886;28;20060;-60
2022/03/07 01:17:35;;;;;;;5.55;3.20;;;2.10;99.90;;;;;;5035181;28;20056;-59
2022/03/07 01:20:01;;;;;;;4.75;3.47;;;2.10;99.90;;;;;;5035414;28;20135;-59
2022/03/07 01:22:27;;;;;;;8.10;4.20;;;2.00;99.90;;;;;;5035306;28;20040;-59
2022/03/07 01:24:52;;;;;;;7.65;3.70;;;2.00;99.90;;;;;;5025411;28;20052;-59
2022/03/07 01:27:18;;;;;;;5.47;3.88;;;1.90;99.90;;;;;;5054201;28;20084;-59
2022/03/07 01:29:43;;;;;;;6.30;4.65;;;2.00;99.90;;;;;;5055566;28;20062;-59
2022/03/07 01:32:09;;;;;;;4.07;3.67;;;2.00;99.90;;;;;;5054436;28;20060;-59
2022/03/07 01:34:35;;;;;;;6.13;4.35;;;2.00;99.90;;;;;;5055239;28;20830;-59
2022/03/07 01:37:01;;;;;;;5.70;4.25;;;2.00;99.90;;;;;;5037137;28;20661;-61
2022/03/07 01:39:26;;;;;;;9.80;5.97;;;2.00;99.90;;;;;;5055208;28;20052;-58
2022/03/07 01:41:52;;;;;;;5.82;4.45;;;1.90;99.90;;;;;;5037187;28;20060;-58
2022/03/07 01:44:23;;;;;;;3.78;3.28;;;2.00;99.90;;;;;;5055638;28;20052;-58
2022/03/07 01:46:50;;;;;;;5.93;3.60;;;1.90;99.90;;;;;;5037544;28;20052;-58
2022/03/07 01:49:16;;;;;;;7.85;4.35;;;1.90;99.90;;;;;;5055550;28;20832;-60
2022/03/07 01:51:43;;;;;;;3.20;2.90;;;1.90;99.90;;;;;;5058380;28;20045;-60
2022/03/07 01:54:11;;;;;;;5.82;3.58;;;1.80;99.90;;;;;;5058133;28;20044;-60
2022/03/07 01:56:37;;;;;;;4.15;3.15;;;1.80;99.90;;;;;;5051825;28;20078;-60
2022/03/07 01:59:09;;;;;;;4.53;3.10;;;1.70;99.90;;;;;;5039774;28;20156;-60
2022/03/07 02:01:35;;;;;;;6.95;3.55;;;2.60;99.90;;;;;;5039454;28;20139;-59
2022/03/07 02:04:00;;;;;;;5.25;3.28;;;1.70;99.90;;;;;;5058468;28;20051;-59
2022/03/07 02:06:27;;;;;;;6.03;3.70;;;1.70;99.90;;;;;;5058446;28;20903;-59
2022/03/07 02:08:54;;;;;;;4.68;3.60;;;1.70;99.90;;;;;;5057749;28;20047;-59
2022/03/07 02:11:19;;;;;;;4.40;3.40;;;1.70;99.90;;;;;;5057794;28;20122;-60
2022/03/07 02:13:45;;;;;;;6.38;3.85;;;1.60;99.90;;;;;;5057932;28;20514;-59
2022/03/07 02:16:12;;;;;;;5.53;4.20;;;1.60;99.90;;;;;;5050914;28;20037;-60
2022/03/07 02:18:37;;;;;;;5.38;3.90;;;1.60;99.90;;;;;;5055729;28;20040;-59
2022/03/07 02:21:09;;;;;;;6.40;3.47;;;1.60;99.90;;;;;;5057362;28;20040;-59
2022/03/07 02:23:36;;;;;;;4.15;3.42;;;1.60;99.90;;;;;;5058530;28;20047;-59
2022/03/07 02:26:13;;;;;;;5.15;3.67;;;1.50;99.90;;;;;;5057711;28;20049;-59
2022/03/07 02:28:40;;;;;;;4.68;3.78;;;1.50;99.90;;;;;;5039689;28;20126;-59
2022/03/07 02:31:06;;;;;;;5.20;4.53;;;1.50;99.90;;;;;;5055880;28;20052;-59
2022/03/07 02:33:33;;;;;;;5.45;4.05;;;1.60;99.90;;;;;;5051385;28;20044;-60
2022/03/07 02:35:58;;;;;;;5.30;3.65;;;1.50;99.90;;;;;;5057308;28;20126;-60
2022/03/07 02:38:24;;;;;;;6.53;4.50;;;1.50;99.90;;;;;;5058054;28;20048;-59
2022/03/07 02:40:49;;;;;;;4.50;3.92;;;1.50;99.90;;;;;;5058150;28;20064;-60
2022/03/07 02:43:16;;;;;;;8.68;5.32;;;1.50;99.90;;;;;;5057386;28;20055;-59
2022/03/07 02:45:43;;;;;;;6.38;4.97;;;1.50;99.90;;;;;;5040283;28;21033;-59
2022/03/07 02:48:09;;;;;;;8.13;4.80;;;1.40;99.90;;;;;;5058081;28;20056;-59
2022/03/07 02:50:34;;;;;;;7.82;4.80;;;1.40;99.90;;;;;;5056998;28;20039;-60
2022/03/07 02:53:00;;;;;;;6.05;5.38;;;1.40;99.90;;;;;;5040341;28;20156;-58
2022/03/07 02:55:25;;;;;;;6.53;4.22;;;1.40;99.90;;;;;;5058255;28;20571;-60
2022/03/07 02:57:51;;;;;;;8.90;4.68;;;1.40;99.90;;;;;;5057552;28;20772;-60
2022/03/07 03:00:17;;;;;;;4.32;3.90;;;1.30;99.90;;;;;;5058087;28;20055;-61
2022/03/07 03:02:43;;;;;;;5.03;4.03;;;1.20;99.90;;;;;;5038426;28;20044;-60
2022/03/07 03:05:10;;;;;;;6.47;4.78;;;1.40;99.90;;;;;;5039572;28;20105;-60
2022/03/07 03:07:36;;;;;;;7.22;4.20;;;1.30;99.90;;;;;;5058421;28;20044;-60
2022/03/07 03:10:02;;;;;;;4.78;4.20;;;1.30;99.90;;;;;;5056984;28;20044;-59
2022/03/07 03:12:27;;;;;;;5.32;4.45;;;1.30;99.90;;;;;;5057617;28;20411;-60
2022/03/07 03:14:56;;;;;;;5.07;4.55;;;1.30;99.90;;;;;;5029275;28;20052;-58
2022/03/07 03:17:22;;;;;;;10.32;4.30;;;1.30;99.90;;;;;;5056478;28;20044;-58
2022/03/07 03:19:48;;;;;;;6.07;3.70;;;1.30;99.90;;;;;;5039188;28;20055;-58
2022/03/07 03:22:14;;;;;;;4.28;3.85;;;1.20;99.90;;;;;;5039535;28;20052;-58
2022/03/07 03:24:42;;;;;;;4.35;3.92;;;1.20;99.90;;;;;;5056367;28;20678;-58
2022/03/07 03:27:08;;;;;;;5.32;4.20;;;1.30;99.90;;;;;;5057388;28;20048;-60
2022/03/07 03:29:33;;;;;;;6.15;4.57;;;1.30;99.90;;;;;;5057255;28;20076;-58
2022/03/07 03:31:59;;;;;;;6.05;4.20;;;1.20;99.90;;;;;;5055964;28;20088;-59
2022/03/07 03:34:25;;;;;;;5.40;4.10;;;1.20;99.90;;;;;;5057047;28;20507;-60
2022/03/07 03:36:51;;;;;;;7.32;5.28;;;1.20;99.90;;;;;;5055888;28;20048;-58
2022/03/07 03:39:17;;;;;;;9.10;5.35;;;1.10;99.90;;;;;;5056787;28;20106;-58
2022/03/07 03:41:43;;;;;;;6.35;4.57;;;1.00;99.90;;;;;;5028786;28;20194;-60
2022/03/07 03:44:08;;;;;;;5.68;4.10;;;1.00;99.90;;;;;;5055638;28;20563;-58
2022/03/07 03:46:34;;;;;;;6.93;4.05;;;1.00;99.90;;;;;;5055473;28;20786;-58
2022/03/07 03:49:00;;;;;;;5.40;4.07;;;1.00;99.90;;;;;;5057207;28;20079;-60
2022/03/07 03:51:26;;;;;;;7.13;4.32;;;1.00;99.90;;;;;;5056269;28;20105;-57
2022/03/07 03:53:51;;;;;;;9.00;5.22;;;1.00;99.90;;;;;;5038237;28;20057;-60
2022/03/07 03:56:17;;;;;;;5.50;4.85;;;1.00;99.90;;;;;;5038523;28;20092;-59
2022/03/07 03:58:42;;;;;;;4.78;4.25;;;1.10;99.90;;;;;;5056420;28;20044;-60
2022/03/07 04:01:08;;;;;;;7.82;4.65;;;1.00;99.90;;;;;;5056276;28;20159;-59
2022/03/07 04:03:34;;;;;;;5.25;4.53;;;1.00;99.90;;;;;;5057153;28;20047;-59
2022/03/07 04:05:59;;;;;;;4.80;3.75;;;1.00;99.90;;;;;;5056614;28;20114;-58
2022/03/07 04:08:28;;;;;;;5.13;3.92;;;1.00;99.90;;;;;;5056124;28;20120;-58
2022/03/07 04:10:53;;;;;;;4.78;3.67;;;1.00;99.90;;;;;;5056889;28;20125;-60
2022/03/07 04:13:19;;;;;;;6.75;4.05;;;1.00;99.90;;;;;;5055623;28;20040;-60
2022/03/07 04:15:44;;;;;;;6.68;4.82;;;1.00;99.90;;;;;;5033699;28;20044;-60
2022/03/07 04:18:10;;;;;;;7.68;3.92;;;1.00;99.90;;;;;;5036289;28;20049;-60
2022/03/07 04:20:36;;;;;;;6.68;3.55;;;1.00;99.90;;;;;;5035384;28;20045;-60
2022/03/07 04:23:02;;;;;;;9.43;4.07;;;0.90;99.90;;;;;;5035874;28;20143;-60
2022/03/07 04:25:28;;;;;;;6.05;3.67;;;0.90;99.90;;;;;;5035871;28;20141;-59
2022/03/07 04:27:54;;;;;;;7.90;4.40;;;0.90;99.90;;;;;;5035605;28;20056;-60
2022/03/07 04:30:20;;;;;;;4.50;3.92;;;0.90;99.90;;;;;;5035849;28;20045;-60
2022/03/07 04:32:46;;;;;;;3.50;3.17;;;0.90;99.90;;;;;;5035057;28;20115;-60
2022/03/07 04:35:11;;;;;;;8.38;4.28;;;0.90;99.90;;;;;;5035125;28;20107;-59
2022/03/07 04:37:41;;;;;;;6.00;4.43;;;0.90;99.90;;;;;;5035413;28;20064;-59
2022/03/07 04:40:13;;;;;;;5.03;4.53;;;0.90;99.90;;;;;;5035380;28;20059;-58
2022/03/07 04:42:40;;;;;;;8.10;5.53;;;0.90;99.90;;;;;;5017256;28;20130;-58
2022/03/07 04:45:06;;;;;;;5.97;3.97;;;0.90;99.90;;;;;;5035617;28;20056;-58
2022/03/07 04:47:32;;;;;;;5.47;4.00;;;0.90;99.90;;;;;;5035342;28;20152;-58
2022/03/07 04:49:58;;;;;;;5.57;5.00;;;0.80;99.90;;;;;;5039788;28;20126;-58
2022/03/07 04:52:23;;;;;;;4.65;4.15;;;0.80;99.90;;;;;;5037678;28;20132;-58
2022/03/07 04:54:49;;;;;;;5.13;4.05;;;0.90;99.90;;;;;;5037395;28;20550;-58
2022/03/07 04:57:14;;;;;;;4.75;3.67;;;0.80;99.90;;;;;;5036792;28;20040;-59
2022/03/07 04:59:45;;;;;;;7.57;3.90;;;0.80;99.90;;;;;;5055491;28;20106;-58
2022/03/07 05:02:11;;;;;;;7.32;3.88;;;0.80;99.90;;;;;;5055726;28;20127;-58
2022/03/07 05:04:37;;;;;;;6.95;4.50;;;0.80;99.90;;;;;;5054416;28;20167;-58
2022/03/07 05:07:03;;;;;;;5.82;3.63;;;0.80;99.90;;;;;;5055268;28;20040;-58
2022/03/07 05:09:31;;;;;;;6.18;4.32;;;0.70;99.90;;;;;;5055101;28;20147;-58
2022/03/07 05:11:57;;;;;;;5.35;3.70;;;0.70;99.90;;;;;;5055442;28;20048;-58
2022/03/07 05:14:26;;;;;;;7.75;4.00;;;0.70;99.90;;;;;;5055543;28;20090;-58
2022/03/07 05:16:52;;;;;;;5.97;3.35;;;0.70;99.90;;;;;;5054621;28;20045;-58
2022/03/07 05:19:18;;;;;;;6.07;4.18;;;0.80;99.90;;;;;;5055134;28;20051;-58
2022/03/07 05:21:43;;;;;;;6.55;4.30;;;0.70;99.90;;;;;;5055365;28;20134;-58
2022/03/07 05:24:09;;;;;;;4.03;3.60;;;0.70;99.90;;;;;;5054670;28;20056;-58
2022/03/07 05:26:36;;;;;;;5.75;4.85;;;0.60;99.90;;;;;;5058750;28;20125;-58
2022/03/07 05:29:03;;;;;;;4.13;2.97;;;0.70;99.90;;;;;;5040752;28;20048;-58
2022/03/07 05:31:29;;;;;;;5.63;3.80;;;0.70;99.90;;;;;;5059222;28;20504;-58
2022/03/07 05:33:55;;;;;;;4.35;3.75;;;0.70;99.90;;;;;;5059613;28;20151;-58
2022/03/07 05:36:20;;;;;;;4.30;3.90;;;0.70;99.90;;;;;;5059401;28;20081;-58
2022/03/07 05:38:46;;;;;;;6.32;3.90;;;0.70;99.90;;;;;;5041042;28;20052;-58
2022/03/07 05:41:11;;;;;;;4.47;3.85;;;0.70;99.90;;;;;;5059449;28;20052;-58
2022/03/07 05:43:37;;;;;;;6.28;4.97;;;0.60;99.90;;;;;;5059654;28;20052;-58
2022/03/07 05:46:03;;;;;;;5.05;4.28;;;0.70;99.90;;;;;;5058683;28;20554;-58
2022/03/07 05:48:28;;;;;;;5.60;4.35;;;0.60;99.90;;;;;;5059194;28;20447;-58
2022/03/07 05:50:54;;;;;;;7.50;4.97;;;0.70;99.90;;;;;;5058006;28;20047;-58
2022/03/07 05:53:21;;;;;;;5.28;4.75;;;0.70;99.90;;;;;;5057830;28;20041;-58
2022/03/07 05:55:51;;;;;;;5.22;4.60;;;0.70;99.90;;;;;;5058798;28;20626;-58
2022/03/07 05:58:17;;;;;;;5.15;4.63;;;0.70;99.90;;;;;;5058471;28;20125;-59
2022/03/07 06:00:43;;;;;;;5.10;4.32;;;0.70;99.90;;;;;;5057510;28;20052;-60
2022/03/07 06:03:09;;;;;;;6.38;4.65;;;0.70;99.90;;;;;;5058126;28;20433;-59
2022/03/07 06:05:34;;;;;;;6.85;4.07;;;0.70;99.90;;;;;;5058706;28;20090;-59
2022/03/07 06:08:00;;;;;;;6.03;4.03;;;0.70;99.90;;;;;;5039910;28;20048;-58
2022/03/07 06:10:26;;;;;;;6.75;5.15;;;0.70;99.90;;;;;;5039807;28;20056;-59
2022/03/07 06:12:52;;;;;;;6.13;4.70;;;0.70;99.90;;;;;;5057282;28;20040;-59
2022/03/07 06:15:18;;;;;;;5.22;4.35;;;0.70;99.90;;;;;;5057773;28;20048;-58
2022/03/07 06:17:55;;;;;;;6.93;3.88;;;0.70;99.90;;;;;;5058326;28;20054;-58
2022/03/07 06:20:21;;;;;;;5.05;4.40;;;0.70;99.90;;;;;;5057423;28;20087;-60
2022/03/07 06:22:47;;;;;;;4.80;4.40;;;0.70;99.90;;;;;;5039327;28;20166;-59
2022/03/07 06:25:13;;;;;;;5.50;4.38;;;0.70;99.90;;;;;;5057924;28;20164;-59
2022/03/07 06:27:39;;;;;;;6.15;4.03;;;0.70;99.90;;;;;;5057166;28;20041;-59
2022/03/07 06:30:05;;;;;;;5.22;4.03;;;0.70;99.90;;;;;;5057707;28;20099;-59
2022/03/07 06:32:31;;;;;;;10.00;4.55;;;0.70;99.90;;;;;;5057831;28;20575;-60
2022/03/07 06:34:56;;;;;;;6.40;4.32;;;0.60;99.90;;;;;;5056934;28;20049;-58
2022/03/07 06:37:23;;;;;;;7.22;4.55;;;0.60;99.90;;;;;;5057500;28;20892;-58
2022/03/07 06:39:49;;;;;;;5.20;4.50;;;0.60;99.90;;;;;;5057378;28;20048;-58
2022/03/07 06:42:14;;;;;;;4.85;4.07;;;0.60;99.90;;;;;;5056869;28;20084;-58
2022/03/07 06:44:40;;;;;;;4.35;3.95;;;0.70;99.90;;;;;;5057281;28;20552;-59
2022/03/07 06:47:07;;;;;;;6.18;4.80;;;1.10;99.90;;;;;;5057379;28;20059;-60
2022/03/07 06:49:32;;;;;;;7.35;4.88;;;0.80;99.90;;;;;;5056638;28;20052;-61
2022/03/07 06:51:58;;;;;;;6.22;5.28;;;0.80;99.90;;;;;;5056928;28;20036;-59
2022/03/07 06:54:24;;;;;;;6.50;4.47;;;0.90;99.90;;;;;;5057055;28;20049;-58
2022/03/07 06:56:49;;;;;;;7.70;5.47;;;0.90;99.90;;;;;;5056538;28;20040;-58
2022/03/07 06:59:15;;;;;;;9.45;4.80;;;1.00;99.90;;;;;;5056715;28;20513;-58
2022/03/07 07:01:40;;;;;;;8.40;5.18;;;0.90;99.90;;;;;;5056798;28;20048;-59
2022/03/07 07:04:06;;;;;;;8.05;4.93;;;1.00;99.90;;;;;;5038716;28;20048;-60
2022/03/07 07:06:32;;;;;;;10.48;6.35;;;1.00;99.90;;;;;;5039397;28;20059;-58
2022/03/07 07:08:57;;;;;;;6.82;5.22;;;1.10;99.90;;;;;;5056703;28;20053;-59
2022/03/07 07:11:23;;;;;;;10.65;6.32;;;1.20;99.90;;;;;;5056641;28;20044;-59
2022/03/07 07:13:48;;;;;;;9.27;7.78;;;1.20;99.90;;;;;;5057409;28;20102;-59
2022/03/07 07:16:14;;;;;;;7.13;5.18;;;1.30;99.90;;;;;;5052695;28;20048;-58
2022/03/07 07:18:39;;;;;;;6.88;5.53;;;1.40;99.90;;;;;;5018153;28;20049;-58
2022/03/07 07:21:06;;;;;;;6.85;4.95;;;1.40;99.90;;;;;;5036688;28;20960;-58
2022/03/07 07:23:31;;;;;;;6.47;5.20;;;1.50;99.90;;;;;;5019031;28;20045;-58
2022/03/07 07:25:57;;;;;;;7.57;5.65;;;1.60;99.90;;;;;;5037181;28;20141;-58
2022/03/07 07:28:28;;;;;;;6.07;5.35;;;1.70;99.90;;;;;;5037042;28;20118;-58
2022/03/07 07:30:54;;;;;;;6.88;5.30;;;1.70;99.90;;;;;;5036786;28;20045;-59
2022/03/07 07:33:19;;;;;;;8.23;5.85;;;1.80;99.90;;;;;;5037490;28;20052;-58
2022/03/07 07:35:45;;;;;;;8.15;6.70;;;1.90;99.90;;;;;;4687279;28;10000112;-59
2022/03/07 07:38:11;;;;;;;10.02;6.18;;;1.90;99.90;;;;;;4690707;28;10000560;-58
2022/03/07 07:40:36;;;;;;;8.02;5.57;;;2.00;99.90;;;;;;4669833;28;9999880;-58
2022/03/07 07:43:02;;;;;;;9.13;5.65;;;2.10;99.90;;;;;;5031796;28;20040;-58
2022/03/07 07:45:28;;;;;;;8.55;6.57;;;2.20;99.90;;;;;;5032168;28;20051;-58
2022/03/07 07:47:54;;;;;;;7.55;6.65;;;2.20;99.90;;;;;;5033294;28;20041;-57
2022/03/07 07:50:20;;;;;;;6.75;6.03;;;2.30;99.90;;;;;;5040617;28;20802;-58
2022/03/07 07:52:46;;;;;;;11.85;7.63;;;2.40;99.90;;;;;;5049189;28;20079;-58
2022/03/07 07:55:12;;;;;;;9.25;5.25;;;2.50;99.90;;;;;;5036206;28;20044;-58
2022/03/07 07:57:39;;;;;;;14.82;6.45;;;2.60;99.90;;;;;;5050874;28;20922;-60
2022/03/07 08:00:07;;;;;;;11.25;6.05;;;2.70;99.90;;;;;;5035159;28;20378;-59
2022/03/07 08:02:33;;;;;;;9.55;6.18;;;2.90;99.90;;;;;;5053600;28;20052;-58
2022/03/07 08:04:59;;;;;;;11.43;7.00;;;3.00;99.90;;;;;;5053520;28;20043;-60
2022/03/07 08:07:25;;;;;;;8.18;6.38;;;3.10;99.90;;;;;;5053101;28;20463;-59
2022/03/07 08:09:51;;;;;;;10.77;8.13;;;3.20;99.90;;;;;;5053211;28;20044;-59
2022/03/07 08:12:19;;;;;;;10.90;6.97;;;3.40;99.90;;;;;;5046640;28;20510;-59
2022/03/07 08:14:45;;;;;;;11.00;7.03;;;3.50;99.90;;;;;;5042091;28;20109;-59
2022/03/07 08:17:11;;;;;;;9.20;6.43;;;3.60;99.90;;;;;;5015570;28;20059;-59
2022/03/07 08:19:38;;;;;;;10.27;6.22;;;3.70;99.90;;;;;;5037574;28;20203;-59
2022/03/07 08:22:06;;;;;;;6.88;5.85;;;3.90;99.90;;;;;;5044663;28;20080;-59
2022/03/07 08:24:32;;;;;;;7.03;4.80;;;4.00;99.90;;;;;;5034228;28;20128;-59
2022/03/07 08:26:58;;;;;;;10.50;5.10;;;4.10;99.90;;;;;;5039016;28;20052;-59
2022/03/07 08:29:24;;;;;;;6.97;4.93;;;4.20;99.90;;;;;;5036289;28;20124;-59
2022/03/07 08:31:49;;;;;;;6.18;3.88;;;4.30;99.90;;;;;;5045059;28;20056;-59
2022/03/07 08:34:15;;;;;;;7.97;4.00;;;4.50;99.90;;;;;;5038122;28;20080;-59
2022/03/07 08:36:41;;;;;;;5.90;3.85;;;4.60;99.90;;;;;;5035846;28;20982;-59
2022/03/07 08:39:06;;;;;;;3.88;3.47;;;4.70;99.90;;;;;;5031627;28;20889;-58
2022/03/07 08:41:34;;;;;;;8.60;4.93;;;4.80;99.90;;;;;;5034747;28;20114;-58
2022/03/07 08:43:59;;;;;;;5.07;3.53;;;5.00;99.90;;;;;;5043002;28;20137;-58
2022/03/07 08:46:25;;;;;;;4.22;3.25;;;5.10;99.90;;;;;;5051868;28;20413;-59
2022/03/07 08:48:51;;;;;;;4.28;3.35;;;5.30;99.90;;;;;;4665240;28;9999850;-59
2022/03/07 08:51:17;;;;;;;4.82;3.10;;;5.40;99.90;;;;;;5038309;28;20159;-59
2022/03/07 08:53:43;;;;;;;3.33;3.03;;;5.50;99.90;;;;;;5039853;28;20091;-59
2022/03/07 08:56:08;;;;;;;7.38;3.88;;;5.60;99.90;;;;;;5038011;28;20040;-59
2022/03/07 08:58:34;;;;;;;4.75;3.28;;;5.80;99.90;;;;;;5037238;28;20286;-59
2022/03/07 09:01:00;;;;;;;3.75;2.85;;;6.00;99.90;;;;;;5010163;28;20164;-59
2022/03/07 09:03:25;;;;;;;6.30;3.55;;;6.20;99.90;;;;;;5030619;28;20063;-59
2022/03/07 09:05:51;;;;;;;4.60;3.05;;;6.40;99.90;;;;;;5032124;28;20550;-59
2022/03/07 09:08:16;;;;;;;3.83;2.65;;;6.70;99.90;;;;;;5035308;28;20405;-58
2022/03/07 09:10:42;;;;;;;5.45;3.40;;;7.30;99.90;;;;;;5036692;28;20614;-59
2022/03/07 09:13:08;;;;;;;6.82;3.05;;;8.10;99.90;;;;;;5047477;28;20119;-59
2022/03/07 09:15:33;;;;;;;5.95;2.22;;;9.20;99.90;;;;;;5050948;28;20070;-59
2022/03/07 09:18:00;;;;;;;2.90;2.35;;;10.10;99.90;;;;;;5050556;28;20062;-59
2022/03/07 09:20:26;;;;;;;5.80;2.47;;;11.10;99.90;;;;;;5033764;28;20049;-58
2022/03/07 09:22:52;;;;;;;5.45;2.33;;;11.90;99.90;;;;;;5033326;28;20045;-59
2022/03/07 09:25:20;;;;;;;4.82;2.90;;;12.20;99.90;;;;;;5051961;28;20074;-59
2022/03/07 09:27:46;;;;;;;6.13;3.20;;;12.90;99.90;;;;;;5052214;28;20260;-59
2022/03/07 09:30:14;;;;;;;3.55;2.20;;;13.50;99.90;;;;;;5051682;28;20567;-59
2022/03/07 09:32:40;;;;;;;4.75;3.15;;;13.80;99.90;;;;;;5050872;28;20147;-61
2022/03/07 09:35:05;;;;;;;4.82;2.40;;;14.40;99.90;;;;;;5050474;28;20049;-59
2022/03/07 09:37:31;;;;;;;8.15;2.10;;;15.00;99.60;;;;;;5050939;28;20143;-59
2022/03/07 09:39:57;;;;;;;9.35;3.28;;;14.70;97.00;;;;;;5051551;28;20400;-59
2022/03/07 09:42:22;;;;;;;4.80;1.95;;;15.40;98.00;;;;;;5033599;28;20063;-59
2022/03/07 09:44:49;;;;;;;5.78;2.35;;;15.60;97.30;;;;;;5033835;28;20056;-59
2022/03/07 09:47:14;;;;;;;4.72;2.40;;;15.30;96.60;;;;;;5017799;28;20048;-58
2022/03/07 09:49:40;;;;;;;5.55;2.63;;;15.90;96.40;;;;;;5037324;28;21476;-59
2022/03/07 09:52:06;;;;;;;5.43;2.90;;;15.40;96.20;;;;;;5053073;28;20235;-59
2022/03/07 09:54:32;;;;;;;4.13;3.35;;;15.90;95.90;;;;;;5054348;28;20502;-59
2022/03/07 09:56:58;;;;;;;3.83;2.08;;;15.40;94.20;;;;;;5054408;28;20055;-61
2022/03/07 09:59:24;;;;;;;5.95;2.60;;;15.80;94.90;;;;;;5054011;28;20052;-61
2022/03/07 10:02:12;;;;;;;3.58;2.38;;;16.60;94.60;;;;;;5054082;28;20040;-60
2022/03/07 10:04:45;;;;;;;3.33;1.70;;;17.40;91.40;;;;;;5032243;28;20459;-60
2022/03/07 10:07:12;;;;;;;4.53;1.73;;;17.60;90.60;;;;;;5050395;28;20055;-60
2022/03/07 10:09:38;;;;;;;9.90;3.75;;;16.90;90.50;;;;;;5036332;28;20075;-61
2022/03/07 10:12:04;;;;;;;3.08;2.05;;;16.00;83.60;;;;;;5056098;28;20047;-60
2022/03/07 10:14:44;;;;;;;7.53;2.15;;;14.80;93.30;;;;;;5058390;28;20689;-60
2022/03/07 10:17:27;;;;;;;2.17;1.95;;;15.00;90.60;;;;;;5057819;28;20040;-60
2022/03/07 10:19:54;;;;;;;5.15;2.47;;;15.00;93.00;;;;;;5056549;28;20048;-60
2022/03/07 10:22:23;;;;;;;4.90;2.45;;;14.70;93.10;;;;;;5057581;28;20150;-60
2022/03/07 10:25:25;;;;;;;5.38;2.50;;;15.50;93.30;;;;;;5057806;28;20053;-60
2022/03/07 10:27:51;;;;;;;3.67;2.35;;;16.20;90.20;;;;;;5057328;28;20054;-60
2022/03/07 10:30:22;;;;;;;4.90;2.55;;;16.40;91.30;;;;;;5057360;28;20044;-60
2022/03/07 10:32:56;;;;;;;3.45;2.00;;;16.10;90.60;;;;;;5038426;28;20157;-60
2022/03/07 10:35:29;;;;;;;4.25;2.13;;;15.70;84.80;;;;;;5056336;28;20064;-60
2022/03/07 10:37:58;;;;;;;9.10;2.50;;;16.50;90.10;;;;;;5057043;28;20060;-60
2022/03/07 10:40:23;;;;;;;3.08;2.50;;;17.00;89.10;;;;;;5038121;28;20679;-60
2022/03/07 10:42:52;;;;;;;6.13;3.28;;;17.30;84.80;;;;;;5056572;28;20051;-60
2022/03/07 10:45:18;;;;;;;5.22;2.33;;;17.10;84.10;;;;;;5039263;28;20060;-60
2022/03/07 10:47:53;;;;;;;4.80;2.80;;;17.60;85.10;;;;;;5058011;28;20407;-60
2022/03/07 10:50:21;;;;;;;3.13;2.72;;;17.70;82.70;;;;;;5058069;28;20428;-60
2022/03/07 10:52:47;;;;;;;3.97;2.78;;;17.10;82.80;;;;;;5057997;28;20132;-60
2022/03/07 10:55:13;;;;;;;4.15;2.95;;;15.10;83.20;;;;;;5057375;28;20044;-60
2022/03/07 10:57:41;;;;;;;3.15;2.78;;;14.10;90.80;;;;;;5057639;28;20049;-60
2022/03/07 11:00:13;;;;;;;4.20;2.60;;;12.90;93.20;;;;;;5057787;28;20158;-60
2022/03/07 11:02:41;;;;;;;3.20;2.70;;;11.60;94.90;;;;;;5057394;28;20051;-60
2022/03/07 11:05:07;;;;;;;8.05;2.90;;;10.90;96.70;;;;;;5039787;28;20221;-60
2022/03/07 11:07:38;;;;;;;3.65;2.47;;;10.00;94.70;;;;;;5058071;28;20037;-59
2022/03/07 11:10:08;;;;;;;3.28;2.15;;;9.70;96.30;;;;;;5056843;28;20044;-60
2022/03/07 11:12:34;;;;;;;6.38;3.28;;;9.30;97.80;;;;;;5057332;28;20059;-60
2022/03/07 11:15:08;;;;;;;3.25;1.90;;;9.10;98.60;;;;;;5039162;28;20063;-59
2022/03/07 11:17:40;;;;;;;2.35;2.15;;;9.00;98.40;;;;;;5056866;28;20048;-60
2022/03/07 11:20:08;;;;;;;3.85;2.35;;;8.70;97.70;;;;;;5056543;28;20044;-60
2022/03/07 11:22:34;;;;;;;2.42;2.10;;;8.50;97.90;;;;;;5055727;28;20056;-60
2022/03/07 11:25:01;;;;;;;2.88;1.48;;;8.20;98.40;;;;;;5056768;28;20930;-60
2022/03/07 11:27:27;;;;;;;2.33;2.13;;;8.10;97.70;;;;;;5056737;28;20060;-60
2022/03/07 11:29:55;;;;;;;2.13;1.90;;;8.10;97.10;;;;;;5056480;28;20756;-60
2022/03/07 11:32:20;;;;;;;3.42;2.10;;;8.40;97.10;;;;;;5038297;28;20206;-60
2022/03/07 11:34:57;;;;;;;4.43;2.90;;;8.70;97.10;;;;;;5056599;28;20053;-59
2022/03/07 11:37:29;;;;;;;3.53;2.40;;;8.60;97.50;;;;;;5056129;28;20052;-59
2022/03/07 11:39:58;;;;;;;2.88;2.67;;;8.80;97.10;;;;;;5056500;28;20091;-60
2022/03/07 11:42:34;;;;;;;3.03;2.63;;;8.90;97.10;;;;;;5038298;28;20511;-59
2022/03/07 11:45:16;;;;;;;2.42;2.22;;;8.80;97.50;;;;;;5055781;28;20055;-59
2022/03/07 11:47:42;;;;;;;2.78;2.58;;;8.70;97.40;;;;;;5056862;28;20052;-59
2022/03/07 11:50:09;;;;;;;3.03;2.22;;;8.60;97.00;;;;;;5056015;28;20048;-60
2022/03/07 11:52:35;;;;;;;4.43;2.22;;;8.50;96.90;;;;;;5056084;28;20067;-60
2022/03/07 11:55:07;;;;;;;2.53;2.17;;;8.50;96.90;;;;;;5056387;28;20067;-60
2022/03/07 11:57:41;;;;;;;4.20;2.35;;;8.60;96.80;;;;;;5056064;28;20079;-59
2022/03/07 12:00:18;;;;;;;1.95;1.67;;;8.70;96.40;;;;;;5036212;28;20167;-60
2022/03/07 12:02:48;;;;;;;2.42;2.22;;;8.90;95.20;;;;;;5056870;28;20052;-60
2022/03/07 12:05:25;;;;;;;1.88;1.77;;;9.00;95.60;;;;;;5055367;28;20053;-60
2022/03/07 12:07:52;;;;;;;3.42;2.00;;;9.20;95.60;;;;;;5056391;28;20059;-60
2022/03/07 12:10:18;;;;;;;2.47;1.98;;;9.10;95.00;;;;;;5056617;28;20037;-60
2022/03/07 12:12:43;;;;;;;6.28;2.20;;;9.00;95.90;;;;;;5056130;28;20101;-60
2022/03/07 12:15:11;;;;;;;2.70;2.40;;;9.00;95.70;;;;;;5056573;28;20055;-60
2022/03/07 12:17:37;;;;;;;3.90;2.10;;;8.90;95.30;;;;;;5056332;28;20084;-60
2022/03/07 12:20:04;;;;;;;1.70;1.60;;;8.90;95.60;;;;;;5055495;28;20113;-60
2022/03/07 12:22:31;;;;;;;2.20;2.00;;;8.80;95.70;;;;;;5056150;28;20044;-60
2022/03/07 12:25:07;;;;;;;2.75;2.17;;;8.70;95.00;;;;;;5056380;28;20322;-60
2022/03/07 12:27:37;;;;;;;4.10;1.90;;;8.40;95.10;;;;;;5037970;28;20060;-60
2022/03/07 12:30:05;;;;;;;2.03;1.80;;;8.30;96.00;;;;;;5055961;28;20055;-61
2022/03/07 12:32:31;;;;;;;1.77;1.67;;;8.10;95.60;;;;;;5038122;28;20500;-60
2022/03/07 12:34:56;;;;;;;2.63;1.80;;;8.00;96.30;;;;;;5055746;28;20044;-59
2022/03/07 12:37:22;;;;;;;4.18;1.92;;;7.90;96.10;;;;;;5038020;28;20056;-60
2022/03/07 12:39:54;;;;;;;4.70;2.30;;;7.90;96.40;;;;;;5055261;28;20044;-60
2022/03/07 12:42:22;;;;;;;4.63;1.88;;;7.90;96.40;;;;;;5055275;28;20744;-60
2022/03/07 12:44:49;;;;;;;1.92;1.80;;;8.00;96.40;;;;;;5056331;28;20045;-60
2022/03/07 12:47:17;;;;;;;1.42;1.30;;;8.30;95.60;;;;;;5055282;28;20114;-59
2022/03/07 12:49:50;;;;;;;2.65;1.63;;;8.50;95.10;;;;;;5036906;28;20059;-60
2022/03/07 12:52:34;;;;;;;4.07;2.42;;;8.60;94.10;;;;;;5055624;28;20110;-59
2022/03/07 12:55:02;;;;;;;2.47;1.30;;;8.60;92.30;;;;;;5036962;28;20060;-60